This is the latest recevied weather packets stored in our database for station/object HK6RM-18. If no packets are shown the sender has not sent any weather packets the latest 10 day(s).
| Time | Temp. | Humidity | Pressure | Rain* | Wind** | Luminosity | Snow |
|---|---|---|---|---|---|---|---|
| 1777601751 | 20.56° C | 83% | 1013 hPa | 0 mm | - | - | - |
| 1777600850 | 21.11° C | 83% | 1013 hPa | 0 mm | - | - | - |
| 1777599949 | 20.56° C | 84% | 1013 hPa | 0 mm | - | - | - |
| 1777599048 | 21.11° C | 84% | 1013 hPa | 0 mm | - | - | - |
| 1777598147 | 20.56° C | 86% | 1012 hPa | 0 mm | - | - | - |
| 1777597244 | 21.11° C | 88% | 1012 hPa | 0 mm | - | - | - |
| 1777596341 | 20.56° C | 88% | 1012 hPa | 0 mm | - | - | - |
| 1777595441 | 21.11° C | 88% | 1011 hPa | 0 mm | - | - | - |
| 1777594539 | 21.67° C | 88% | 1011 hPa | 0 mm | - | - | - |
| 1777593639 | 24.44° C | 73% | 1010 hPa | 0 mm | - | - | - |
| 1777592738 | 24.44° C | 73% | 1010 hPa | 0 mm | - | - | - |
| 1777591838 | 21.67° C | 68% | 1010 hPa | 0 mm | - | - | - |
| 1777590937 | 22.22° C | 66% | 1009 hPa | 0 mm | - | - | - |
| 1777590037 | 22.78° C | 64% | 1009 hPa | 0 mm | - | - | - |
| 1777589136 | 23.33° C | 62% | 1009 hPa | 0 mm | - | - | - |
| 1777588236 | 23.89° C | 60% | 1008 hPa | 0 mm | - | - | - |
| 1777587335 | 24.44° C | 59% | 1007 hPa | 0 mm | - | - | - |
| 1777586434 | 25° C | 57% | 1007 hPa | 0 mm | - | - | - |
| 1777585534 | 24.44° C | 57% | 1007 hPa | 0 mm | - | - | - |
| 1777584633 | 25° C | 57% | 1007 hPa | 0 mm | - | - | - |
| 1777583733 | 24.44° C | 59% | 1007 hPa | 0 mm | - | - | - |
| 1777582831 | 25° C | 60% | 1007 hPa | 0 mm | - | - | - |
| 1777581930 | 25.56° C | 60% | 1007 hPa | 0 mm | - | - | - |
| 1777581024 | 26.11° C | 60% | 1007 hPa | 0 mm | - | - | - |
| 1777580123 | 22.22° C | 69% | 1007 hPa | 0 mm | - | - | - |
* Rain latest hour (hover to see other rain measurements)
** Current wind speed in m/s (hover to see current wind gust speed)